createdAt,value
2019-06-15T00:00:20.103Z,19.80
2019-06-15T00:02:49.604Z,19.80
2019-06-15T00:05:19.295Z,19.80
2019-06-15T00:07:48.809Z,19.70
2019-06-15T00:10:18.286Z,19.70
2019-06-15T00:12:47.806Z,19.70
2019-06-15T00:15:17.500Z,19.70
2019-06-15T00:17:46.976Z,19.70
2019-06-15T00:20:17.385Z,19.70
2019-06-15T00:22:46.924Z,19.60
2019-06-15T00:25:16.597Z,19.60
2019-06-15T00:27:46.098Z,19.60
2019-06-15T00:30:15.956Z,19.50
2019-06-15T00:32:45.466Z,19.50
2019-06-15T00:35:14.936Z,19.60
2019-06-15T00:37:44.476Z,19.50
2019-06-15T00:40:15.439Z,19.40
2019-06-15T00:42:44.911Z,19.40
2019-06-15T00:45:14.729Z,19.30
2019-06-15T00:47:44.213Z,19.30
2019-06-15T00:50:13.914Z,19.30
2019-06-15T00:52:43.390Z,19.30
2019-06-15T00:55:13.044Z,19.40
2019-06-15T00:57:42.556Z,19.40
2019-06-15T01:00:12.246Z,19.40
2019-06-15T01:02:41.742Z,19.30
2019-06-15T01:05:12.705Z,19.30
2019-06-15T01:07:42.268Z,19.20
2019-06-15T01:10:11.909Z,19.20
2019-06-15T01:12:41.517Z,19.10
2019-06-15T01:15:11.298Z,19.10
2019-06-15T01:17:40.813Z,19.20
2019-06-15T01:20:11.100Z,19.30
2019-06-15T01:22:40.601Z,19.20
2019-06-15T01:25:10.991Z,19.20
2019-06-15T01:27:40.629Z,19.20
2019-06-15T01:30:10.911Z,19.10
2019-06-15T01:32:40.412Z,19.00
2019-06-15T01:35:09.988Z,19.00
2019-06-15T01:37:39.548Z,18.90
2019-06-15T01:40:09.954Z,18.90
2019-06-15T01:45:14.968Z,18.90
2019-06-15T01:47:44.468Z,18.80
2019-06-15T01:50:14.149Z,18.90
2019-06-15T01:52:43.667Z,18.80
2019-06-15T01:55:20.824Z,18.80
2019-06-15T01:57:44.312Z,18.70
2019-06-15T02:00:20.911Z,18.80
2019-06-15T02:02:50.454Z,18.70
2019-06-15T02:05:20.961Z,18.80
2019-06-15T02:07:50.469Z,18.80
2019-06-15T02:10:20.251Z,18.80
2019-06-15T02:12:49.837Z,18.70
2019-06-15T02:15:19.440Z,18.60
2019-06-15T02:17:48.921Z,18.60
2019-06-15T02:20:18.656Z,18.60
2019-06-15T02:22:48.157Z,18.50
2019-06-15T02:25:35.200Z,18.50
2019-06-15T02:27:56.482Z,18.40
2019-06-15T02:30:31.349Z,18.40
2019-06-15T02:33:01.163Z,18.30
2019-06-15T02:35:30.639Z,18.30
2019-06-15T02:38:00.247Z,18.20
2019-06-15T02:40:29.680Z,18.20
2019-06-15T02:42:59.186Z,18.20
2019-06-15T02:45:28.703Z,18.10
2019-06-15T02:47:58.214Z,18.20
2019-06-15T02:50:27.678Z,18.20
2019-06-15T02:52:57.230Z,18.10
2019-06-15T02:55:26.717Z,18.10
2019-06-15T02:57:56.321Z,18.00
2019-06-15T03:00:33.597Z,18.00
2019-06-15T03:03:03.149Z,18.00
2019-06-15T03:05:32.737Z,18.00
2019-06-15T03:08:02.253Z,18.00
2019-06-15T03:10:32.328Z,18.00
2019-06-15T03:13:02.432Z,18.00
2019-06-15T03:15:31.960Z,18.00
2019-06-15T03:18:01.714Z,18.00
2019-06-15T03:20:31.289Z,17.90
2019-06-15T03:23:00.770Z,17.90
2019-06-15T03:25:30.297Z,17.90
2019-06-15T03:27:59.774Z,17.80
2019-06-15T03:30:29.265Z,17.90
2019-06-15T03:32:58.758Z,17.90
2019-06-15T03:35:28.346Z,17.90
2019-06-15T03:37:57.816Z,17.90
2019-06-15T03:40:27.329Z,17.90
2019-06-15T03:42:56.870Z,17.90
2019-06-15T03:45:26.358Z,18.00
2019-06-15T03:47:55.869Z,18.00
2019-06-15T03:50:25.364Z,18.00
2019-06-15T03:52:54.919Z,18.00
2019-06-15T03:55:24.399Z,18.00
2019-06-15T03:57:53.853Z,18.10
2019-06-15T04:00:57.943Z,18.10
2019-06-15T04:03:27.452Z,18.20
2019-06-15T04:05:56.978Z,18.20
2019-06-15T04:08:26.485Z,18.20
2019-06-15T04:10:56.002Z,18.20
2019-06-15T04:13:25.489Z,18.20
2019-06-15T04:15:55.060Z,18.20
2019-06-15T04:18:24.532Z,18.20
2019-06-15T04:20:54.035Z,18.40
2019-06-15T04:23:23.497Z,18.50
2019-06-15T04:25:53.913Z,18.60
2019-06-15T04:28:23.409Z,18.60
2019-06-15T04:30:52.876Z,18.70
2019-06-15T04:33:22.394Z,18.80
2019-06-15T04:35:51.865Z,18.90
2019-06-15T04:38:21.377Z,19.00
2019-06-15T04:40:51.091Z,19.10
2019-06-15T04:43:20.570Z,19.10
2019-06-15T04:45:50.109Z,19.20
2019-06-15T04:48:21.557Z,19.30
2019-06-15T04:50:50.998Z,19.40
2019-06-15T04:53:20.528Z,19.40
2019-06-15T04:55:49.983Z,19.50
2019-06-15T04:58:19.506Z,19.50
2019-06-15T05:00:49.078Z,19.40
2019-06-15T05:03:18.546Z,19.50
2019-06-15T05:05:48.053Z,19.40
2019-06-15T05:08:17.537Z,19.60
2019-06-15T05:10:47.158Z,19.60
2019-06-15T05:13:16.657Z,19.60
2019-06-15T05:15:46.169Z,19.60
2019-06-15T05:18:15.696Z,19.50
2019-06-15T05:20:45.187Z,19.50
2019-06-15T05:23:14.677Z,19.50
2019-06-15T05:25:44.155Z,19.60
2019-06-15T05:28:13.659Z,19.60
2019-06-15T05:30:43.167Z,19.70
2019-06-15T05:33:12.680Z,19.80
2019-06-15T05:35:42.185Z,20.00
2019-06-15T05:38:11.825Z,20.10
2019-06-15T05:40:41.324Z,20.20
2019-06-15T05:43:10.850Z,20.40
2019-06-15T05:45:40.337Z,20.60
2019-06-15T05:48:09.868Z,20.70
2019-06-15T05:50:39.334Z,20.80
2019-06-15T05:53:08.837Z,21.00
2019-06-15T05:55:38.347Z,21.20
2019-06-15T05:58:07.813Z,21.20
2019-06-15T06:00:37.298Z,21.40
2019-06-15T06:03:06.838Z,21.60
2019-06-15T06:05:36.357Z,21.80
2019-06-15T06:08:05.817Z,22.10
2019-06-15T06:10:35.330Z,22.20
2019-06-15T06:13:09.994Z,22.50
2019-06-15T06:15:39.525Z,22.50
2019-06-15T06:18:09.114Z,22.60
2019-06-15T06:20:38.699Z,22.70
2019-06-15T06:23:08.170Z,22.60
2019-06-15T06:25:37.631Z,22.70
2019-06-15T06:28:07.144Z,22.70
2019-06-15T06:30:36.651Z,22.80
2019-06-15T06:33:06.209Z,22.90
2019-06-15T06:35:35.716Z,22.90
2019-06-15T06:38:05.277Z,22.70
2019-06-15T06:40:34.741Z,22.60
2019-06-15T06:43:04.229Z,22.50
2019-06-15T06:45:33.731Z,22.50
2019-06-15T06:48:03.195Z,22.40
2019-06-15T06:50:32.707Z,22.50
2019-06-15T06:53:02.217Z,22.40
2019-06-15T06:55:31.815Z,22.40
2019-06-15T06:58:01.301Z,22.50
2019-06-15T07:00:30.797Z,22.40
2019-06-15T07:03:00.297Z,22.50
2019-06-15T07:05:29.876Z,22.70
2019-06-15T07:08:05.589Z,22.70
2019-06-15T07:10:35.110Z,22.80
2019-06-15T07:13:04.624Z,22.40
2019-06-15T07:15:34.176Z,22.20
2019-06-15T07:18:03.673Z,21.90
2019-06-15T07:20:33.152Z,21.80
2019-06-15T07:23:02.660Z,21.70
2019-06-15T07:25:32.141Z,21.60
2019-06-15T07:28:07.915Z,21.50
2019-06-15T07:30:32.737Z,21.60
2019-06-15T07:33:02.236Z,21.90
2019-06-15T07:35:31.769Z,22.00
2019-06-15T07:38:01.254Z,22.00
2019-06-15T07:40:30.764Z,21.90
2019-06-15T07:43:00.228Z,22.10
2019-06-15T07:45:29.788Z,22.30
2019-06-15T07:47:59.250Z,22.30
2019-06-15T07:50:28.777Z,22.30
2019-06-15T07:52:58.313Z,22.50
2019-06-15T07:55:27.769Z,22.50
2019-06-15T07:57:57.334Z,22.70
2019-06-15T08:00:26.921Z,22.50
2019-06-15T08:02:56.443Z,22.50
2019-06-15T08:05:25.912Z,22.80
2019-06-15T08:07:55.446Z,23.10
2019-06-15T08:10:24.923Z,23.00
2019-06-15T08:12:54.420Z,22.80
2019-06-15T08:15:26.400Z,22.70
2019-06-15T08:17:55.869Z,22.60
2019-06-15T08:20:29.855Z,22.70
2019-06-15T08:22:59.305Z,22.70
2019-06-15T08:25:28.969Z,22.80
2019-06-15T08:27:58.493Z,23.00
2019-06-15T08:30:38.314Z,22.90
2019-06-15T08:33:07.772Z,23.00
2019-06-15T08:35:37.300Z,23.00
2019-06-15T08:38:06.923Z,22.90
2019-06-15T08:40:36.533Z,22.70
2019-06-15T08:43:06.234Z,22.90
2019-06-15T08:45:35.757Z,22.80
2019-06-15T08:48:05.361Z,22.90
2019-06-15T08:50:34.866Z,23.00
2019-06-15T08:53:04.416Z,23.00
2019-06-15T08:55:33.908Z,23.20
2019-06-15T08:58:03.429Z,23.20
2019-06-15T09:00:33.490Z,23.30
2019-06-15T09:03:02.960Z,23.20
2019-06-15T09:05:32.467Z,23.10
2019-06-15T09:08:02.200Z,22.90
2019-06-15T09:10:31.701Z,22.90
2019-06-15T09:13:01.307Z,23.10
2019-06-15T09:15:51.209Z,23.50
2019-06-15T09:18:20.768Z,23.40
2019-06-15T09:20:50.929Z,23.50
2019-06-15T09:23:20.544Z,23.50
2019-06-15T09:25:50.158Z,23.40
2019-06-15T09:28:19.728Z,23.50
2019-06-15T09:30:49.217Z,23.70
2019-06-15T09:33:18.709Z,23.70
2019-06-15T09:35:48.298Z,23.50
2019-06-15T09:38:17.806Z,23.50
2019-06-15T09:40:47.262Z,23.60
2019-06-15T09:43:16.766Z,23.80
2019-06-15T09:45:46.230Z,23.90
2019-06-15T09:48:15.722Z,24.00
2019-06-15T09:50:45.209Z,23.90
2019-06-15T09:53:14.713Z,24.10
2019-06-15T09:55:44.182Z,24.30
2019-06-15T09:58:13.690Z,24.30
2019-06-15T10:00:43.181Z,24.10
2019-06-15T10:03:12.724Z,23.90
2019-06-15T10:05:42.230Z,23.90
2019-06-15T10:08:11.739Z,23.90
2019-06-15T10:10:41.225Z,23.70
2019-06-15T10:13:10.701Z,23.80
2019-06-15T10:15:40.215Z,23.80
2019-06-15T10:18:09.699Z,24.00
2019-06-15T10:20:39.189Z,24.20
2019-06-15T10:23:08.663Z,24.40
2019-06-15T10:25:38.193Z,24.10
2019-06-15T10:28:07.662Z,23.90
2019-06-15T10:30:37.181Z,23.90
2019-06-15T10:33:06.642Z,24.20
2019-06-15T10:35:36.158Z,24.10
2019-06-15T10:38:05.673Z,24.00
2019-06-15T10:40:35.251Z,24.10
2019-06-15T10:43:04.685Z,24.80
2019-06-15T10:48:09.346Z,25.10
2019-06-15T10:50:38.860Z,24.70
2019-06-15T10:53:08.377Z,24.70
2019-06-15T10:55:37.949Z,24.40
2019-06-15T10:58:08.407Z,24.90
2019-06-15T11:00:37.917Z,25.30
2019-06-15T11:03:07.416Z,25.60
2019-06-15T11:05:38.833Z,24.90
2019-06-15T11:08:08.309Z,24.30
2019-06-15T11:11:06.978Z,24.30
2019-06-15T11:13:36.461Z,24.10
2019-06-15T11:16:06.054Z,24.00
2019-06-15T11:18:35.738Z,24.00
2019-06-15T11:21:05.358Z,23.80
2019-06-15T11:23:34.867Z,24.00
2019-06-15T11:26:04.556Z,24.50
2019-06-15T11:28:34.060Z,24.60
2019-06-15T11:31:03.571Z,24.50
2019-06-15T11:33:33.038Z,24.60
2019-06-15T11:36:02.552Z,24.70
2019-06-15T11:38:32.042Z,24.60
2019-06-15T11:41:01.564Z,24.90
2019-06-15T11:43:31.036Z,24.80
2019-06-15T11:46:00.589Z,24.90
2019-06-15T11:48:30.073Z,25.20
2019-06-15T11:50:59.726Z,24.80
2019-06-15T11:53:29.342Z,24.40
2019-06-15T11:55:58.864Z,24.10
2019-06-15T11:58:28.704Z,24.00
2019-06-15T12:00:58.240Z,23.80
2019-06-15T12:06:03.051Z,24.30
2019-06-15T12:08:32.565Z,24.40
2019-06-15T12:11:02.033Z,24.60
2019-06-15T12:13:31.577Z,24.70
2019-06-15T12:16:01.535Z,25.00
2019-06-15T12:18:31.081Z,24.60
2019-06-15T12:21:00.587Z,24.10
2019-06-15T12:23:30.085Z,23.90
2019-06-15T12:25:59.578Z,24.00
2019-06-15T12:28:29.066Z,24.00
2019-06-15T12:30:58.574Z,24.00
2019-06-15T12:33:28.054Z,24.00
2019-06-15T12:35:57.552Z,24.10
2019-06-15T12:38:27.028Z,24.40
2019-06-15T12:40:56.545Z,24.60
2019-06-15T12:43:26.010Z,24.90
2019-06-15T12:45:57.782Z,25.10
2019-06-15T12:48:27.005Z,24.80
2019-06-15T12:50:56.491Z,24.70
2019-06-15T12:53:26.015Z,24.70
2019-06-15T12:55:55.488Z,25.10
2019-06-15T12:58:25.017Z,25.60
2019-06-15T13:01:02.751Z,26.00
2019-06-15T13:03:25.637Z,25.90
2019-06-15T13:05:55.103Z,25.70
2019-06-15T13:08:24.639Z,25.30
2019-06-15T13:10:54.113Z,25.10
2019-06-15T13:13:23.723Z,25.50
2019-06-15T13:15:53.210Z,25.30
2019-06-15T13:18:22.684Z,26.10
2019-06-15T13:20:52.186Z,26.20
2019-06-15T13:23:21.704Z,26.50
2019-06-15T13:25:51.228Z,26.40
2019-06-15T13:28:20.700Z,26.30
2019-06-15T13:30:50.222Z,26.10
2019-06-15T13:33:19.701Z,26.60
2019-06-15T13:35:49.219Z,26.50
2019-06-15T13:38:18.743Z,26.00
2019-06-15T13:40:48.246Z,25.90
2019-06-15T13:43:17.771Z,25.80
2019-06-15T13:45:47.236Z,25.90
2019-06-15T13:48:16.753Z,25.80
2019-06-15T13:50:46.243Z,25.60
2019-06-15T13:53:15.761Z,26.00
2019-06-15T13:55:45.250Z,27.10
2019-06-15T13:58:14.874Z,28.00
2019-06-15T14:00:44.345Z,28.70
2019-06-15T14:03:13.853Z,28.60
2019-06-15T14:05:43.392Z,28.30
2019-06-15T14:08:12.908Z,28.20
2019-06-15T14:10:42.411Z,28.10
2019-06-15T14:13:11.909Z,28.30
2019-06-15T14:15:41.431Z,28.70
2019-06-15T14:18:11.135Z,28.10
2019-06-15T14:20:40.649Z,28.20
2019-06-15T14:23:10.137Z,27.90
2019-06-15T14:25:39.650Z,27.80
2019-06-15T14:28:09.184Z,28.50
2019-06-15T14:30:38.717Z,28.40
2019-06-15T14:33:08.207Z,28.20
2019-06-15T14:35:37.745Z,27.50
2019-06-15T14:38:07.290Z,27.80
2019-06-15T14:40:36.764Z,28.20
2019-06-15T14:43:06.334Z,29.20
2019-06-15T14:45:35.869Z,29.90
2019-06-15T14:48:05.460Z,29.40
2019-06-15T14:50:34.942Z,29.80
2019-06-15T14:53:04.439Z,29.60
2019-06-15T14:55:36.523Z,29.10
2019-06-15T14:58:06.315Z,28.40
2019-06-15T15:00:36.056Z,28.40
2019-06-15T15:03:06.878Z,28.60
2019-06-15T15:05:36.582Z,28.10
2019-06-15T15:08:06.909Z,28.20
2019-06-15T15:10:36.889Z,28.70
2019-06-15T15:13:06.755Z,29.00
2019-06-15T15:15:36.508Z,29.30
2019-06-15T15:18:06.976Z,29.00
2019-06-15T15:20:36.574Z,28.80
2019-06-15T15:23:06.373Z,28.70
2019-06-15T15:25:36.948Z,29.00
2019-06-15T15:28:07.402Z,29.30
2019-06-15T15:30:40.679Z,29.00
2019-06-15T15:33:10.221Z,28.30
2019-06-15T15:35:39.693Z,28.90
2019-06-15T15:38:09.172Z,29.60
2019-06-15T15:40:38.667Z,29.50
2019-06-15T15:43:08.229Z,29.60
2019-06-15T15:45:37.698Z,29.60
2019-06-15T15:48:07.244Z,30.20
2019-06-15T15:50:37.215Z,30.10
2019-06-15T15:53:06.769Z,29.30
2019-06-15T15:55:36.290Z,28.30
2019-06-15T15:58:06.757Z,27.50
2019-06-15T16:00:36.587Z,27.50
2019-06-15T16:03:07.235Z,27.50
2019-06-15T16:05:37.256Z,28.40
2019-06-15T16:08:07.026Z,29.20
2019-06-15T16:10:37.382Z,29.50
2019-06-15T16:13:07.071Z,29.10
2019-06-15T16:15:37.178Z,27.80
2019-06-15T16:18:07.164Z,26.70
2019-06-15T16:20:37.182Z,27.00
2019-06-15T16:23:07.676Z,28.30
2019-06-15T16:25:37.560Z,29.30
2019-06-15T16:28:07.343Z,29.00
2019-06-15T16:31:00.457Z,29.70
2019-06-15T16:33:08.170Z,29.10
2019-06-15T16:35:37.744Z,27.90
2019-06-15T16:38:07.335Z,26.90
2019-06-15T16:40:38.688Z,27.60
2019-06-15T16:43:08.515Z,28.80
2019-06-15T16:45:38.162Z,29.80
2019-06-15T16:48:07.665Z,31.00
2019-06-15T16:50:37.200Z,31.90
2019-06-15T16:53:06.689Z,31.90
2019-06-15T16:55:37.043Z,31.30
2019-06-15T16:58:07.595Z,30.30
2019-06-15T17:00:37.491Z,29.70
2019-06-15T17:03:20.699Z,28.70
2019-06-15T17:05:38.361Z,28.70
2019-06-15T17:08:07.841Z,29.10
2019-06-15T17:10:41.441Z,29.80
2019-06-15T17:13:11.118Z,30.20
2019-06-15T17:15:40.697Z,29.70
2019-06-15T17:18:10.274Z,30.00
2019-06-15T17:20:47.014Z,29.70
2019-06-15T17:23:16.583Z,29.50
2019-06-15T17:25:46.105Z,29.10
2019-06-15T17:28:15.668Z,29.10
2019-06-15T17:30:45.426Z,29.30
2019-06-15T17:33:16.817Z,29.20
2019-06-15T17:35:56.218Z,28.30
2019-06-15T17:38:17.433Z,27.80
2019-06-15T17:40:46.908Z,26.70
2019-06-15T17:43:16.413Z,26.00
2019-06-15T17:45:46.741Z,25.70
2019-06-15T17:48:17.339Z,25.30
2019-06-15T17:50:47.725Z,25.40
2019-06-15T17:53:17.562Z,25.20
2019-06-15T17:55:47.039Z,25.20
2019-06-15T17:58:17.158Z,25.20
2019-06-15T18:00:47.642Z,25.20
2019-06-15T18:03:17.512Z,25.20
2019-06-15T18:05:48.120Z,25.00
2019-06-15T18:08:18.043Z,24.90
2019-06-15T18:10:48.098Z,24.90
2019-06-15T18:13:17.772Z,24.90
2019-06-15T18:15:48.026Z,24.80
2019-06-15T18:18:17.692Z,24.50
2019-06-15T18:20:47.226Z,24.20
2019-06-15T18:23:17.652Z,24.30
2019-06-15T18:25:47.362Z,24.10
2019-06-15T18:28:17.646Z,24.10
2019-06-15T18:30:47.597Z,24.20
2019-06-15T18:33:17.121Z,24.30
2019-06-15T18:35:47.384Z,24.40
2019-06-15T18:38:17.195Z,24.20
2019-06-15T18:40:46.656Z,24.00
2019-06-15T18:43:16.667Z,24.00
2019-06-15T18:45:47.268Z,24.00
2019-06-15T18:48:17.182Z,24.00
2019-06-15T18:50:46.916Z,23.90
2019-06-15T18:53:16.408Z,23.90
2019-06-15T18:55:47.398Z,23.80
2019-06-15T18:58:17.701Z,23.80
2019-06-15T19:00:47.324Z,23.60
2019-06-15T19:03:17.102Z,23.40
2019-06-15T19:05:46.933Z,23.30
2019-06-15T19:08:17.351Z,23.20
2019-06-15T19:10:47.112Z,23.10
2019-06-15T19:13:16.689Z,23.10
2019-06-15T19:15:46.667Z,23.10
2019-06-15T19:18:17.832Z,23.00
2019-06-15T19:20:47.445Z,22.80
2019-06-15T19:23:16.953Z,22.70
2019-06-15T19:25:46.973Z,22.60
2019-06-15T19:28:16.852Z,22.50
2019-06-15T19:30:47.092Z,22.40
2019-06-15T19:33:16.927Z,22.40
2019-06-15T19:35:46.625Z,22.30
2019-06-15T19:38:16.485Z,22.20
2019-06-15T19:40:46.245Z,22.20
2019-06-15T19:43:16.252Z,22.10
2019-06-15T19:45:46.055Z,22.00
2019-06-15T19:48:17.157Z,22.00
2019-06-15T19:50:46.834Z,22.00
2019-06-15T19:53:17.213Z,21.90
2019-06-15T19:55:46.909Z,21.90
2019-06-15T19:58:16.652Z,21.80
2019-06-15T20:00:46.842Z,21.80
2019-06-15T20:03:16.882Z,21.70
2019-06-15T20:05:46.618Z,21.60
2019-06-15T20:08:17.811Z,21.60
2019-06-15T20:10:47.579Z,21.50
2019-06-15T20:13:18.927Z,21.40
2019-06-15T20:15:48.785Z,21.40
2019-06-15T20:18:18.695Z,21.40
2019-06-15T20:20:51.307Z,21.30
2019-06-15T20:23:20.964Z,21.30
2019-06-15T20:25:50.410Z,21.30
2019-06-15T20:28:19.874Z,21.30
2019-06-15T20:30:49.373Z,21.30
2019-06-15T20:33:18.870Z,21.30
2019-06-15T20:35:48.341Z,21.30
2019-06-15T20:38:17.880Z,21.20
2019-06-15T20:40:47.918Z,21.10
2019-06-15T20:43:17.476Z,21.10
2019-06-15T20:45:47.534Z,21.00
2019-06-15T20:48:17.000Z,21.10
2019-06-15T20:50:47.163Z,21.10
2019-06-15T20:53:17.771Z,21.00
2019-06-15T20:55:47.317Z,21.00
2019-06-15T20:58:17.313Z,21.00
2019-06-15T21:00:47.803Z,20.90
2019-06-15T21:03:17.474Z,20.80
2019-06-15T21:05:47.701Z,20.80
2019-06-15T21:08:17.530Z,20.70
2019-06-15T21:10:47.017Z,20.70
2019-06-15T21:13:17.099Z,20.60
2019-06-15T21:15:47.537Z,20.60
2019-06-15T21:18:17.238Z,20.60
2019-06-15T21:20:47.190Z,20.60
2019-06-15T21:23:16.894Z,20.50
2019-06-15T21:25:46.821Z,20.50
2019-06-15T21:28:17.045Z,20.40
2019-06-15T21:30:47.285Z,20.40
2019-06-15T21:33:16.901Z,20.50
2019-06-15T21:35:52.308Z,20.40
2019-06-15T21:38:17.574Z,20.50
2019-06-15T21:40:47.712Z,20.50
2019-06-15T21:43:17.302Z,20.50
2019-06-15T21:45:46.794Z,20.40
2019-06-15T21:48:16.322Z,20.40
2019-06-15T21:50:47.263Z,20.40
2019-06-15T21:53:17.351Z,20.40
2019-06-15T21:55:47.314Z,20.40
2019-06-15T21:58:16.985Z,20.30
2019-06-15T22:01:06.270Z,20.30
2019-06-15T22:03:36.799Z,20.30
2019-06-15T22:06:06.618Z,20.30
2019-06-15T22:08:37.093Z,20.30
2019-06-15T22:11:06.828Z,20.20
2019-06-15T22:13:37.346Z,20.10
2019-06-15T22:16:07.130Z,20.10
2019-06-15T22:18:36.685Z,20.10
2019-06-15T22:21:06.659Z,20.00
2019-06-15T22:23:36.537Z,20.00
2019-06-15T22:26:06.601Z,19.90
2019-06-15T22:28:36.433Z,19.80
2019-06-15T22:31:06.652Z,19.80
2019-06-15T22:33:36.494Z,19.80
2019-06-15T22:36:20.736Z,19.70
2019-06-15T22:38:37.616Z,19.60
2019-06-15T22:41:07.080Z,19.40
2019-06-15T22:43:36.599Z,19.20
2019-06-15T22:46:07.400Z,19.00
2019-06-15T22:48:37.345Z,18.80
2019-06-15T22:51:06.810Z,18.60
2019-06-15T22:53:36.674Z,18.60
2019-06-15T22:56:06.762Z,18.70
2019-06-15T22:58:36.345Z,18.70
2019-06-15T23:01:06.269Z,18.70
2019-06-15T23:03:35.807Z,18.70
2019-06-15T23:06:06.940Z,18.80
2019-06-15T23:08:36.633Z,18.90
2019-06-15T23:11:06.673Z,18.80
2019-06-15T23:13:36.817Z,18.70
2019-06-15T23:16:06.544Z,18.70
2019-06-15T23:18:36.086Z,18.50
2019-06-15T23:21:06.365Z,18.40
2019-06-15T23:23:36.304Z,18.30
2019-06-15T23:26:06.552Z,18.20
2019-06-15T23:28:36.145Z,18.20
2019-06-15T23:31:07.600Z,18.20
2019-06-15T23:33:36.848Z,18.10
2019-06-15T23:36:11.221Z,18.00
2019-06-15T23:38:40.731Z,17.90
2019-06-15T23:41:10.191Z,17.80
2019-06-15T23:43:39.873Z,17.70
2019-06-15T23:46:09.386Z,17.60
2019-06-15T23:48:39.749Z,17.40
2019-06-15T23:51:09.233Z,17.30
2019-06-15T23:53:38.760Z,17.20
2019-06-15T23:56:08.225Z,17.00
2019-06-15T23:58:40.764Z,17.00
